sensor_id;sensor_type;location;lat;lon;timestamp;P1;durP1;ratioP1;P2;durP2;ratioP2
41572;SDS011;27286;47.870;19.006;2022-11-11T00:01:03;17.02;;;10.50;;
41572;SDS011;27286;47.870;19.006;2022-11-11T00:03:35;21.15;;;10.93;;
41572;SDS011;27286;47.870;19.006;2022-11-11T00:06:02;23.33;;;10.73;;
41572;SDS011;27286;47.870;19.006;2022-11-11T00:08:32;21.13;;;10.77;;
41572;SDS011;27286;47.870;19.006;2022-11-11T00:10:59;18.88;;;10.35;;
41572;SDS011;27286;47.870;19.006;2022-11-11T00:13:26;19.98;;;10.20;;
41572;SDS011;27286;47.870;19.006;2022-11-11T00:15:53;21.13;;;11.43;;
41572;SDS011;27286;47.870;19.006;2022-11-11T00:18:18;19.58;;;11.25;;
41572;SDS011;27286;47.870;19.006;2022-11-11T00:21:02;20.38;;;10.70;;
41572;SDS011;27286;47.870;19.006;2022-11-11T00:23:46;22.00;;;12.07;;
41572;SDS011;27286;47.870;19.006;2022-11-11T00:26:30;23.95;;;12.93;;
41572;SDS011;27286;47.870;19.006;2022-11-11T00:28:55;24.27;;;11.77;;
41572;SDS011;27286;47.870;19.006;2022-11-11T00:31:21;17.70;;;10.13;;
41572;SDS011;27286;47.870;19.006;2022-11-11T00:33:46;17.30;;;9.10;;
41572;SDS011;27286;47.870;19.006;2022-11-11T00:36:12;13.00;;;7.55;;
41572;SDS011;27286;47.870;19.006;2022-11-11T00:38:37;13.90;;;7.30;;
41572;SDS011;27286;47.870;19.006;2022-11-11T00:41:20;13.90;;;7.25;;
41572;SDS011;27286;47.870;19.006;2022-11-11T00:43:47;17.00;;;7.47;;
41572;SDS011;27286;47.870;19.006;2022-11-11T00:46:13;15.38;;;7.13;;
41572;SDS011;27286;47.870;19.006;2022-11-11T00:48:58;15.13;;;7.47;;
41572;SDS011;27286;47.870;19.006;2022-11-11T00:51:42;11.63;;;6.57;;
41572;SDS011;27286;47.870;19.006;2022-11-11T00:54:07;15.20;;;7.88;;
41572;SDS011;27286;47.870;19.006;2022-11-11T00:56:33;13.18;;;6.85;;
41572;SDS011;27286;47.870;19.006;2022-11-11T00:59:05;13.13;;;7.20;;
41572;SDS011;27286;47.870;19.006;2022-11-11T01:01:32;11.10;;;6.95;;
41572;SDS011;27286;47.870;19.006;2022-11-11T01:03:59;14.23;;;6.70;;
41572;SDS011;27286;47.870;19.006;2022-11-11T01:06:25;13.35;;;6.88;;
41572;SDS011;27286;47.870;19.006;2022-11-11T01:08:51;12.07;;;6.07;;
41572;SDS011;27286;47.870;19.006;2022-11-11T01:11:20;12.75;;;6.13;;
41572;SDS011;27286;47.870;19.006;2022-11-11T01:13:47;11.65;;;6.90;;
41572;SDS011;27286;47.870;19.006;2022-11-11T01:16:17;12.52;;;5.97;;
41572;SDS011;27286;47.870;19.006;2022-11-11T01:18:48;13.18;;;6.47;;
41572;SDS011;27286;47.870;19.006;2022-11-11T01:21:18;11.48;;;5.32;;
41572;SDS011;27286;47.870;19.006;2022-11-11T01:23:45;9.10;;;4.65;;
41572;SDS011;27286;47.870;19.006;2022-11-11T01:28:51;10.77;;;5.53;;
41572;SDS011;27286;47.870;19.006;2022-11-11T01:31:17;10.13;;;6.10;;
41572;SDS011;27286;47.870;19.006;2022-11-11T01:33:44;12.00;;;6.32;;
41572;SDS011;27286;47.870;19.006;2022-11-11T01:36:11;12.13;;;6.00;;
41572;SDS011;27286;47.870;19.006;2022-11-11T01:38:38;17.67;;;8.70;;
41572;SDS011;27286;47.870;19.006;2022-11-11T01:41:05;14.52;;;8.35;;
41572;SDS011;27286;47.870;19.006;2022-11-11T01:43:49;19.92;;;9.13;;
41572;SDS011;27286;47.870;19.006;2022-11-11T01:46:29;17.30;;;9.00;;
41572;SDS011;27286;47.870;19.006;2022-11-11T01:49:06;18.00;;;8.20;;
41572;SDS011;27286;47.870;19.006;2022-11-11T01:56:54;12.00;;;6.00;;
41572;SDS011;27286;47.870;19.006;2022-11-11T01:59:25;12.50;;;5.00;;
41572;SDS011;27286;47.870;19.006;2022-11-11T02:01:52;11.32;;;6.13;;
41572;SDS011;27286;47.870;19.006;2022-11-11T02:04:18;10.65;;;4.70;;
41572;SDS011;27286;47.870;19.006;2022-11-11T02:07:03;10.85;;;5.18;;
41572;SDS011;27286;47.870;19.006;2022-11-11T02:09:31;9.40;;;4.50;;
41572;SDS011;27286;47.870;19.006;2022-11-11T02:11:57;11.10;;;4.60;;
41572;SDS011;27286;47.870;19.006;2022-11-11T02:14:46;9.05;;;4.43;;
41572;SDS011;27286;47.870;19.006;2022-11-11T02:17:15;16.27;;;5.68;;
41572;SDS011;27286;47.870;19.006;2022-11-11T02:22:39;11.05;;;4.82;;
41572;SDS011;27286;47.870;19.006;2022-11-11T02:25:07;9.63;;;4.35;;
41572;SDS011;27286;47.870;19.006;2022-11-11T02:27:36;13.18;;;4.88;;
41572;SDS011;27286;47.870;19.006;2022-11-11T02:30:06;9.25;;;4.18;;
41572;SDS011;27286;47.870;19.006;2022-11-11T02:32:39;9.13;;;3.65;;
41572;SDS011;27286;47.870;19.006;2022-11-11T02:35:10;9.10;;;3.75;;
41572;SDS011;27286;47.870;19.006;2022-11-11T02:37:38;7.40;;;3.35;;
41572;SDS011;27286;47.870;19.006;2022-11-11T02:40:07;9.10;;;4.45;;
41572;SDS011;27286;47.870;19.006;2022-11-11T02:42:33;9.13;;;3.88;;
41572;SDS011;27286;47.870;19.006;2022-11-11T02:45:00;8.90;;;3.92;;
41572;SDS011;27286;47.870;19.006;2022-11-11T02:47:25;8.65;;;3.38;;
41572;SDS011;27286;47.870;19.006;2022-11-11T02:49:51;7.22;;;3.33;;
41572;SDS011;27286;47.870;19.006;2022-11-11T02:52:16;10.00;;;3.33;;
41572;SDS011;27286;47.870;19.006;2022-11-11T02:54:42;7.63;;;3.45;;
41572;SDS011;27286;47.870;19.006;2022-11-11T02:57:07;7.55;;;3.65;;
41572;SDS011;27286;47.870;19.006;2022-11-11T02:59:34;9.02;;;4.43;;
41572;SDS011;27286;47.870;19.006;2022-11-11T03:02:01;8.93;;;3.60;;
41572;SDS011;27286;47.870;19.006;2022-11-11T03:04:26;13.50;;;5.55;;
41572;SDS011;27286;47.870;19.006;2022-11-11T03:06:51;11.43;;;5.13;;
41572;SDS011;27286;47.870;19.006;2022-11-11T03:09:17;8.95;;;4.13;;
41572;SDS011;27286;47.870;19.006;2022-11-11T03:11:42;11.43;;;5.63;;
41572;SDS011;27286;47.870;19.006;2022-11-11T03:14:07;13.40;;;4.80;;
41572;SDS011;27286;47.870;19.006;2022-11-11T03:16:33;12.32;;;5.90;;
41572;SDS011;27286;47.870;19.006;2022-11-11T03:19:18;15.93;;;6.68;;
41572;SDS011;27286;47.870;19.006;2022-11-11T03:21:43;11.95;;;6.38;;
41572;SDS011;27286;47.870;19.006;2022-11-11T03:24:09;11.48;;;5.45;;
41572;SDS011;27286;47.870;19.006;2022-11-11T03:26:34;9.55;;;3.88;;
41572;SDS011;27286;47.870;19.006;2022-11-11T03:29:00;8.98;;;4.05;;
41572;SDS011;27286;47.870;19.006;2022-11-11T03:31:25;9.20;;;3.38;;
41572;SDS011;27286;47.870;19.006;2022-11-11T03:33:51;9.30;;;3.55;;
41572;SDS011;27286;47.870;19.006;2022-11-11T03:36:16;7.38;;;3.70;;
41572;SDS011;27286;47.870;19.006;2022-11-11T03:38:42;10.52;;;3.55;;
41572;SDS011;27286;47.870;19.006;2022-11-11T03:41:07;7.07;;;3.22;;
41572;SDS011;27286;47.870;19.006;2022-11-11T03:43:33;7.45;;;3.25;;
41572;SDS011;27286;47.870;19.006;2022-11-11T03:46:21;6.75;;;3.15;;
41572;SDS011;27286;47.870;19.006;2022-11-11T03:48:46;8.15;;;3.67;;
41572;SDS011;27286;47.870;19.006;2022-11-11T03:51:12;6.82;;;3.20;;
41572;SDS011;27286;47.870;19.006;2022-11-11T03:53:37;10.82;;;3.55;;
41572;SDS011;27286;47.870;19.006;2022-11-11T03:56:03;7.20;;;4.10;;
41572;SDS011;27286;47.870;19.006;2022-11-11T03:58:28;6.03;;;2.90;;
41572;SDS011;27286;47.870;19.006;2022-11-11T04:00:54;6.88;;;3.20;;
41572;SDS011;27286;47.870;19.006;2022-11-11T04:03:19;7.43;;;3.78;;
41572;SDS011;27286;47.870;19.006;2022-11-11T04:06:07;8.18;;;3.72;;
41572;SDS011;27286;47.870;19.006;2022-11-11T04:08:56;8.43;;;4.32;;
41572;SDS011;27286;47.870;19.006;2022-11-11T04:11:47;9.60;;;3.80;;
41572;SDS011;27286;47.870;19.006;2022-11-11T04:14:13;6.75;;;2.65;;
41572;SDS011;27286;47.870;19.006;2022-11-11T04:17:01;9.02;;;3.58;;
41572;SDS011;27286;47.870;19.006;2022-11-11T04:19:27;9.23;;;4.22;;
41572;SDS011;27286;47.870;19.006;2022-11-11T04:25:15;8.27;;;3.95;;
41572;SDS011;27286;47.870;19.006;2022-11-11T04:27:59;8.73;;;4.07;;
41572;SDS011;27286;47.870;19.006;2022-11-11T04:30:43;8.27;;;3.38;;
41572;SDS011;27286;47.870;19.006;2022-11-11T04:33:09;10.73;;;3.42;;
41572;SDS011;27286;47.870;19.006;2022-11-11T04:35:34;9.68;;;4.30;;
41572;SDS011;27286;47.870;19.006;2022-11-11T04:43:36;16.42;;;6.45;;
41572;SDS011;27286;47.870;19.006;2022-11-11T05:20:51;6.32;;;2.70;;
41572;SDS011;27286;47.870;19.006;2022-11-11T05:23:37;6.30;;;3.03;;
41572;SDS011;27286;47.870;19.006;2022-11-11T05:26:28;6.43;;;2.80;;
41572;SDS011;27286;47.870;19.006;2022-11-11T05:29:00;6.28;;;2.83;;
41572;SDS011;27286;47.870;19.006;2022-11-11T05:31:53;6.65;;;2.72;;
41572;SDS011;27286;47.870;19.006;2022-11-11T05:53:10;4.88;;;1.98;;
41572;SDS011;27286;47.870;19.006;2022-11-11T05:56:14;5.13;;;1.85;;
41572;SDS011;27286;47.870;19.006;2022-11-11T05:59:12;4.97;;;2.20;;
41572;SDS011;27286;47.870;19.006;2022-11-11T06:02:25;5.63;;;2.03;;
41572;SDS011;27286;47.870;19.006;2022-11-11T06:06:05;6.65;;;2.28;;
41572;SDS011;27286;47.870;19.006;2022-11-11T06:14:41;6.68;;;2.45;;
41572;SDS011;27286;47.870;19.006;2022-11-11T06:17:08;7.97;;;2.53;;
41572;SDS011;27286;47.870;19.006;2022-11-11T06:19:38;8.02;;;2.35;;
41572;SDS011;27286;47.870;19.006;2022-11-11T06:22:28;3.55;;;1.40;;
41572;SDS011;27286;47.870;19.006;2022-11-11T06:31:13;4.50;;;2.35;;
41572;SDS011;27286;47.870;19.006;2022-11-11T06:34:19;6.32;;;2.67;;
41572;SDS011;27286;47.870;19.006;2022-11-11T06:36:52;6.43;;;3.28;;
41572;SDS011;27286;47.870;19.006;2022-11-11T06:43:06;7.43;;;3.70;;
41572;SDS011;27286;47.870;19.006;2022-11-11T06:45:33;7.13;;;2.63;;
41572;SDS011;27286;47.870;19.006;2022-11-11T06:48:03;5.45;;;2.90;;
41572;SDS011;27286;47.870;19.006;2022-11-11T06:50:29;8.18;;;3.65;;
41572;SDS011;27286;47.870;19.006;2022-11-11T06:53:02;8.57;;;4.30;;
41572;SDS011;27286;47.870;19.006;2022-11-11T06:55:28;6.90;;;4.07;;
41572;SDS011;27286;47.870;19.006;2022-11-11T06:57:54;7.35;;;4.30;;
41572;SDS011;27286;47.870;19.006;2022-11-11T07:00:19;8.95;;;4.85;;
41572;SDS011;27286;47.870;19.006;2022-11-11T07:02:44;11.40;;;4.60;;
41572;SDS011;27286;47.870;19.006;2022-11-11T07:05:11;8.90;;;5.13;;
41572;SDS011;27286;47.870;19.006;2022-11-11T07:07:37;12.43;;;5.18;;
41572;SDS011;27286;47.870;19.006;2022-11-11T07:10:02;24.83;;;14.40;;
41572;SDS011;27286;47.870;19.006;2022-11-11T07:12:31;33.42;;;17.17;;
41572;SDS011;27286;47.870;19.006;2022-11-11T07:14:56;33.35;;;18.23;;
41572;SDS011;27286;47.870;19.006;2022-11-11T07:17:22;35.38;;;22.63;;
41572;SDS011;27286;47.870;19.006;2022-11-11T07:19:47;36.13;;;20.55;;
41572;SDS011;27286;47.870;19.006;2022-11-11T07:22:12;32.95;;;20.38;;
41572;SDS011;27286;47.870;19.006;2022-11-11T07:24:38;26.85;;;17.55;;
41572;SDS011;27286;47.870;19.006;2022-11-11T07:27:03;25.58;;;14.68;;
41572;SDS011;27286;47.870;19.006;2022-11-11T07:29:28;20.15;;;10.45;;
41572;SDS011;27286;47.870;19.006;2022-11-11T07:31:54;13.27;;;8.50;;
41572;SDS011;27286;47.870;19.006;2022-11-11T07:34:19;14.43;;;8.77;;
41572;SDS011;27286;47.870;19.006;2022-11-11T07:36:45;14.68;;;8.93;;
41572;SDS011;27286;47.870;19.006;2022-11-11T07:39:10;14.95;;;7.93;;
41572;SDS011;27286;47.870;19.006;2022-11-11T07:41:38;9.68;;;5.15;;
41572;SDS011;27286;47.870;19.006;2022-11-11T07:44:03;10.27;;;5.45;;
41572;SDS011;27286;47.870;19.006;2022-11-11T07:46:28;9.93;;;6.32;;
41572;SDS011;27286;47.870;19.006;2022-11-11T07:48:54;8.88;;;5.50;;
41572;SDS011;27286;47.870;19.006;2022-11-11T07:51:21;12.23;;;5.82;;
41572;SDS011;27286;47.870;19.006;2022-11-11T07:53:47;11.45;;;6.93;;
41572;SDS011;27286;47.870;19.006;2022-11-11T07:56:12;20.30;;;7.65;;
41572;SDS011;27286;47.870;19.006;2022-11-11T07:58:37;15.10;;;9.50;;
41572;SDS011;27286;47.870;19.006;2022-11-11T08:01:03;22.27;;;10.93;;
41572;SDS011;27286;47.870;19.006;2022-11-11T08:03:28;17.95;;;10.48;;
41572;SDS011;27286;47.870;19.006;2022-11-11T08:05:54;12.90;;;9.07;;
41572;SDS011;27286;47.870;19.006;2022-11-11T08:08:20;14.02;;;9.45;;
41572;SDS011;27286;47.870;19.006;2022-11-11T08:10:49;12.27;;;8.40;;
41572;SDS011;27286;47.870;19.006;2022-11-11T08:13:17;13.40;;;8.70;;
41572;SDS011;27286;47.870;19.006;2022-11-11T08:16:01;12.52;;;8.30;;
41572;SDS011;27286;47.870;19.006;2022-11-11T08:18:30;17.42;;;10.45;;
41572;SDS011;27286;47.870;19.006;2022-11-11T08:20:56;17.33;;;9.90;;
41572;SDS011;27286;47.870;19.006;2022-11-11T08:23:22;15.90;;;9.13;;
41572;SDS011;27286;47.870;19.006;2022-11-11T08:25:56;20.58;;;11.85;;
41572;SDS011;27286;47.870;19.006;2022-11-11T08:28:23;15.85;;;10.35;;
41572;SDS011;27286;47.870;19.006;2022-11-11T08:30:48;13.20;;;9.43;;
41572;SDS011;27286;47.870;19.006;2022-11-11T08:33:13;15.75;;;9.07;;
41572;SDS011;27286;47.870;19.006;2022-11-11T08:35:41;16.55;;;9.93;;
41572;SDS011;27286;47.870;19.006;2022-11-11T08:38:06;13.10;;;8.40;;
41572;SDS011;27286;47.870;19.006;2022-11-11T08:40:32;14.50;;;8.23;;
41572;SDS011;27286;47.870;19.006;2022-11-11T08:42:57;15.80;;;9.25;;
41572;SDS011;27286;47.870;19.006;2022-11-11T08:45:24;14.20;;;9.20;;
41572;SDS011;27286;47.870;19.006;2022-11-11T08:47:49;14.95;;;10.23;;
41572;SDS011;27286;47.870;19.006;2022-11-11T08:50:15;17.48;;;10.48;;
41572;SDS011;27286;47.870;19.006;2022-11-11T08:52:47;14.77;;;9.40;;
41572;SDS011;27286;47.870;19.006;2022-11-11T08:55:14;18.15;;;9.48;;
41572;SDS011;27286;47.870;19.006;2022-11-11T08:57:40;14.25;;;9.27;;
41572;SDS011;27286;47.870;19.006;2022-11-11T09:00:05;16.63;;;9.40;;
41572;SDS011;27286;47.870;19.006;2022-11-11T09:02:32;11.70;;;8.50;;
41572;SDS011;27286;47.870;19.006;2022-11-11T09:05:00;14.38;;;9.25;;
41572;SDS011;27286;47.870;19.006;2022-11-11T09:07:33;14.63;;;9.02;;
41572;SDS011;27286;47.870;19.006;2022-11-11T09:09:59;15.30;;;10.02;;
41572;SDS011;27286;47.870;19.006;2022-11-11T09:12:26;15.93;;;10.65;;
41572;SDS011;27286;47.870;19.006;2022-11-11T09:14:52;13.95;;;9.55;;
41572;SDS011;27286;47.870;19.006;2022-11-11T09:17:19;20.23;;;10.63;;
41572;SDS011;27286;47.870;19.006;2022-11-11T09:19:45;18.40;;;11.07;;
41572;SDS011;27286;47.870;19.006;2022-11-11T09:22:10;19.73;;;10.85;;
41572;SDS011;27286;47.870;19.006;2022-11-11T09:24:35;14.65;;;9.38;;
41572;SDS011;27286;47.870;19.006;2022-11-11T09:27:01;16.35;;;9.55;;
41572;SDS011;27286;47.870;19.006;2022-11-11T09:29:26;16.30;;;10.95;;
41572;SDS011;27286;47.870;19.006;2022-11-11T09:31:51;16.83;;;10.50;;
41572;SDS011;27286;47.870;19.006;2022-11-11T09:34:17;17.13;;;10.20;;
41572;SDS011;27286;47.870;19.006;2022-11-11T09:36:42;16.08;;;9.63;;
41572;SDS011;27286;47.870;19.006;2022-11-11T09:39:08;15.18;;;10.20;;
41572;SDS011;27286;47.870;19.006;2022-11-11T09:44:24;18.55;;;11.57;;
41572;SDS011;27286;47.870;19.006;2022-11-11T09:47:20;14.93;;;9.40;;
41572;SDS011;27286;47.870;19.006;2022-11-11T09:50:08;12.88;;;8.60;;
41572;SDS011;27286;47.870;19.006;2022-11-11T09:52:41;15.48;;;8.85;;
41572;SDS011;27286;47.870;19.006;2022-11-11T09:55:13;18.40;;;9.82;;
41572;SDS011;27286;47.870;19.006;2022-11-11T09:57:50;16.85;;;9.75;;
41572;SDS011;27286;47.870;19.006;2022-11-11T10:00:23;15.52;;;10.48;;
41572;SDS011;27286;47.870;19.006;2022-11-11T10:02:56;19.40;;;9.35;;
41572;SDS011;27286;47.870;19.006;2022-11-11T10:05:49;13.45;;;9.07;;
41572;SDS011;27286;47.870;19.006;2022-11-11T10:08:24;14.57;;;9.45;;
41572;SDS011;27286;47.870;19.006;2022-11-11T10:10:53;17.30;;;10.45;;
41572;SDS011;27286;47.870;19.006;2022-11-11T10:13:19;15.82;;;9.80;;
41572;SDS011;27286;47.870;19.006;2022-11-11T10:18:33;15.85;;;10.13;;
41572;SDS011;27286;47.870;19.006;2022-11-11T10:27:09;15.55;;;9.20;;
41572;SDS011;27286;47.870;19.006;2022-11-11T10:29:42;21.92;;;11.40;;
41572;SDS011;27286;47.870;19.006;2022-11-11T10:34:49;14.07;;;9.65;;
41572;SDS011;27286;47.870;19.006;2022-11-11T10:37:26;17.10;;;10.65;;
41572;SDS011;27286;47.870;19.006;2022-11-11T10:40:11;16.48;;;10.82;;
41572;SDS011;27286;47.870;19.006;2022-11-11T10:42:50;16.27;;;11.00;;
41572;SDS011;27286;47.870;19.006;2022-11-11T10:45:20;16.58;;;9.75;;
41572;SDS011;27286;47.870;19.006;2022-11-11T10:47:52;16.60;;;11.00;;
41572;SDS011;27286;47.870;19.006;2022-11-11T10:50:26;15.45;;;10.30;;
41572;SDS011;27286;47.870;19.006;2022-11-11T10:53:16;15.98;;;10.32;;
41572;SDS011;27286;47.870;19.006;2022-11-11T11:00:41;17.85;;;11.45;;
41572;SDS011;27286;47.870;19.006;2022-11-11T11:06:11;18.00;;;12.52;;
41572;SDS011;27286;47.870;19.006;2022-11-11T11:08:50;16.20;;;11.77;;
41572;SDS011;27286;47.870;19.006;2022-11-11T11:11:20;19.30;;;12.88;;
41572;SDS011;27286;47.870;19.006;2022-11-11T11:14:00;16.58;;;11.80;;
41572;SDS011;27286;47.870;19.006;2022-11-11T11:16:34;16.25;;;11.15;;
41572;SDS011;27286;47.870;19.006;2022-11-11T11:24:28;15.60;;;11.55;;
41572;SDS011;27286;47.870;19.006;2022-11-11T11:27:03;20.70;;;11.60;;
41572;SDS011;27286;47.870;19.006;2022-11-11T11:37:11;17.40;;;11.20;;
41572;SDS011;27286;47.870;19.006;2022-11-11T11:39:40;17.23;;;10.45;;
41572;SDS011;27286;47.870;19.006;2022-11-11T11:42:06;16.80;;;10.90;;
41572;SDS011;27286;47.870;19.006;2022-11-11T11:44:36;16.73;;;10.73;;
41572;SDS011;27286;47.870;19.006;2022-11-11T11:55:43;14.48;;;10.35;;
41572;SDS011;27286;47.870;19.006;2022-11-11T12:01:13;13.98;;;9.50;;
41572;SDS011;27286;47.870;19.006;2022-11-11T12:03:46;13.88;;;9.95;;
41572;SDS011;27286;47.870;19.006;2022-11-11T12:06:38;16.15;;;11.05;;
41572;SDS011;27286;47.870;19.006;2022-11-11T12:15:20;19.00;;;12.27;;
41572;SDS011;27286;47.870;19.006;2022-11-11T12:32:26;16.92;;;10.32;;
41572;SDS011;27286;47.870;19.006;2022-11-11T12:35:02;15.27;;;10.48;;
41572;SDS011;27286;47.870;19.006;2022-11-11T12:37:42;17.55;;;11.23;;
41572;SDS011;27286;47.870;19.006;2022-11-11T12:40:39;17.05;;;10.98;;
41572;SDS011;27286;47.870;19.006;2022-11-11T12:46:04;17.80;;;10.70;;
41572;SDS011;27286;47.870;19.006;2022-11-11T12:48:39;17.42;;;10.38;;
41572;SDS011;27286;47.870;19.006;2022-11-11T12:57:01;16.35;;;10.55;;
41572;SDS011;27286;47.870;19.006;2022-11-11T13:10:22;15.60;;;8.80;;
41572;SDS011;27286;47.870;19.006;2022-11-11T13:15:46;16.42;;;9.57;;
41572;SDS011;27286;47.870;19.006;2022-11-11T13:18:24;15.23;;;8.85;;
41572;SDS011;27286;47.870;19.006;2022-11-11T13:20:56;14.05;;;8.35;;
41572;SDS011;27286;47.870;19.006;2022-11-11T13:23:25;12.85;;;9.07;;
41572;SDS011;27286;47.870;19.006;2022-11-11T13:25:52;15.98;;;10.25;;
41572;SDS011;27286;47.870;19.006;2022-11-11T13:28:23;15.15;;;9.48;;
41572;SDS011;27286;47.870;19.006;2022-11-11T13:33:39;14.82;;;9.95;;
41572;SDS011;27286;47.870;19.006;2022-11-11T13:36:08;16.80;;;9.70;;
41572;SDS011;27286;47.870;19.006;2022-11-11T13:38:45;15.38;;;9.45;;
41572;SDS011;27286;47.870;19.006;2022-11-11T13:41:18;17.20;;;9.50;;
41572;SDS011;27286;47.870;19.006;2022-11-11T13:43:48;16.37;;;8.53;;
41572;SDS011;27286;47.870;19.006;2022-11-11T13:48:56;15.63;;;8.02;;
41572;SDS011;27286;47.870;19.006;2022-11-11T13:54:05;15.23;;;8.73;;
41572;SDS011;27286;47.870;19.006;2022-11-11T13:56:45;14.20;;;7.57;;
41572;SDS011;27286;47.870;19.006;2022-11-11T13:59:17;12.63;;;7.75;;
41572;SDS011;27286;47.870;19.006;2022-11-11T14:01:47;11.82;;;7.20;;
41572;SDS011;27286;47.870;19.006;2022-11-11T14:18:01;15.55;;;8.32;;
41572;SDS011;27286;47.870;19.006;2022-11-11T14:28:33;19.25;;;9.50;;
41572;SDS011;27286;47.870;19.006;2022-11-11T14:45:00;26.88;;;14.48;;
41572;SDS011;27286;47.870;19.006;2022-11-11T14:49:54;42.42;;;18.58;;
41572;SDS011;27286;47.870;19.006;2022-11-11T14:52:22;38.58;;;19.75;;
41572;SDS011;27286;47.870;19.006;2022-11-11T14:58:09;23.20;;;12.38;;
41572;SDS011;27286;47.870;19.006;2022-11-11T15:08:44;20.02;;;12.77;;
41572;SDS011;27286;47.870;19.006;2022-11-11T15:14:03;26.58;;;13.75;;
41572;SDS011;27286;47.870;19.006;2022-11-11T15:36:09;20.50;;;10.15;;
41572;SDS011;27286;47.870;19.006;2022-11-11T15:38:44;17.95;;;10.85;;
41572;SDS011;27286;47.870;19.006;2022-11-11T15:41:20;17.00;;;10.70;;
41572;SDS011;27286;47.870;19.006;2022-11-11T15:43:48;26.63;;;14.10;;
41572;SDS011;27286;47.870;19.006;2022-11-11T15:46:19;27.20;;;14.85;;
41572;SDS011;27286;47.870;19.006;2022-11-11T15:48:49;27.80;;;16.40;;
41572;SDS011;27286;47.870;19.006;2022-11-11T15:51:31;25.55;;;14.38;;
41572;SDS011;27286;47.870;19.006;2022-11-11T15:54:19;22.20;;;12.75;;
41572;SDS011;27286;47.870;19.006;2022-11-11T15:56:50;17.17;;;12.30;;
41572;SDS011;27286;47.870;19.006;2022-11-11T15:59:29;18.45;;;10.93;;
41572;SDS011;27286;47.870;19.006;2022-11-11T16:01:56;18.08;;;11.25;;
41572;SDS011;27286;47.870;19.006;2022-11-11T16:04:23;19.77;;;12.07;;
41572;SDS011;27286;47.870;19.006;2022-11-11T16:06:49;20.58;;;11.95;;
41572;SDS011;27286;47.870;19.006;2022-11-11T16:09:19;20.40;;;11.38;;
41572;SDS011;27286;47.870;19.006;2022-11-11T16:11:50;19.70;;;12.13;;
41572;SDS011;27286;47.870;19.006;2022-11-11T16:14:38;20.02;;;11.32;;
41572;SDS011;27286;47.870;19.006;2022-11-11T16:17:08;22.95;;;11.25;;
41572;SDS011;27286;47.870;19.006;2022-11-11T16:19:40;22.10;;;11.27;;
41572;SDS011;27286;47.870;19.006;2022-11-11T16:24:38;25.77;;;13.07;;
41572;SDS011;27286;47.870;19.006;2022-11-11T16:27:07;27.55;;;15.18;;
41572;SDS011;27286;47.870;19.006;2022-11-11T16:29:39;24.90;;;13.30;;
41572;SDS011;27286;47.870;19.006;2022-11-11T16:32:30;26.60;;;12.82;;
41572;SDS011;27286;47.870;19.006;2022-11-11T16:34:57;41.20;;;16.48;;
41572;SDS011;27286;47.870;19.006;2022-11-11T16:37:23;30.30;;;15.00;;
41572;SDS011;27286;47.870;19.006;2022-11-11T16:39:49;25.92;;;14.70;;
41572;SDS011;27286;47.870;19.006;2022-11-11T16:42:21;34.72;;;18.02;;
41572;SDS011;27286;47.870;19.006;2022-11-11T16:45:00;36.45;;;18.27;;
41572;SDS011;27286;47.870;19.006;2022-11-11T16:50:05;27.88;;;16.30;;
41572;SDS011;27286;47.870;19.006;2022-11-11T16:55:15;42.17;;;19.73;;
41572;SDS011;27286;47.870;19.006;2022-11-11T16:57:59;36.97;;;18.25;;
41572;SDS011;27286;47.870;19.006;2022-11-11T17:00:33;39.78;;;18.25;;
41572;SDS011;27286;47.870;19.006;2022-11-11T17:05:54;26.70;;;16.08;;
41572;SDS011;27286;47.870;19.006;2022-11-11T17:08:29;23.00;;;15.02;;
41572;SDS011;27286;47.870;19.006;2022-11-11T17:10:58;19.88;;;12.60;;
41572;SDS011;27286;47.870;19.006;2022-11-11T17:13:24;18.02;;;10.30;;
41572;SDS011;27286;47.870;19.006;2022-11-11T17:15:54;15.02;;;9.55;;
41572;SDS011;27286;47.870;19.006;2022-11-11T17:18:20;19.27;;;12.43;;
41572;SDS011;27286;47.870;19.006;2022-11-11T17:20:46;26.90;;;11.73;;
41572;SDS011;27286;47.870;19.006;2022-11-11T17:23:12;23.48;;;13.73;;
41572;SDS011;27286;47.870;19.006;2022-11-11T17:25:38;21.60;;;12.38;;
41572;SDS011;27286;47.870;19.006;2022-11-11T17:28:03;18.50;;;13.23;;
41572;SDS011;27286;47.870;19.006;2022-11-11T17:30:28;20.95;;;10.75;;
41572;SDS011;27286;47.870;19.006;2022-11-11T17:32:54;20.92;;;11.45;;
41572;SDS011;27286;47.870;19.006;2022-11-11T17:35:19;20.73;;;11.25;;
41572;SDS011;27286;47.870;19.006;2022-11-11T17:37:45;30.73;;;22.73;;
41572;SDS011;27286;47.870;19.006;2022-11-11T17:40:10;18.35;;;13.25;;
41572;SDS011;27286;47.870;19.006;2022-11-11T17:42:36;23.27;;;13.68;;
41572;SDS011;27286;47.870;19.006;2022-11-11T17:45:02;22.00;;;14.00;;
41572;SDS011;27286;47.870;19.006;2022-11-11T17:47:28;18.67;;;10.88;;
41572;SDS011;27286;47.870;19.006;2022-11-11T17:49:55;19.27;;;10.82;;
41572;SDS011;27286;47.870;19.006;2022-11-11T17:52:20;19.95;;;11.25;;
41572;SDS011;27286;47.870;19.006;2022-11-11T17:54:46;18.77;;;12.00;;
41572;SDS011;27286;47.870;19.006;2022-11-11T17:57:11;20.73;;;11.02;;
41572;SDS011;27286;47.870;19.006;2022-11-11T17:59:36;18.25;;;10.95;;
41572;SDS011;27286;47.870;19.006;2022-11-11T18:02:02;17.75;;;10.63;;
41572;SDS011;27286;47.870;19.006;2022-11-11T18:04:27;18.98;;;11.25;;
41572;SDS011;27286;47.870;19.006;2022-11-11T18:06:53;96.57;;;49.85;;
41572;SDS011;27286;47.870;19.006;2022-11-11T18:09:18;114.45;;;70.00;;
41572;SDS011;27286;47.870;19.006;2022-11-11T18:11:44;26.58;;;19.15;;
41572;SDS011;27286;47.870;19.006;2022-11-11T18:14:09;17.90;;;12.60;;
41572;SDS011;27286;47.870;19.006;2022-11-11T18:16:36;24.63;;;15.10;;
41572;SDS011;27286;47.870;19.006;2022-11-11T18:19:02;24.48;;;17.25;;
41572;SDS011;27286;47.870;19.006;2022-11-11T18:21:28;31.70;;;20.00;;
41572;SDS011;27286;47.870;19.006;2022-11-11T18:23:55;26.52;;;17.90;;
41572;SDS011;27286;47.870;19.006;2022-11-11T18:26:21;44.92;;;27.58;;
41572;SDS011;27286;47.870;19.006;2022-11-11T18:28:46;26.13;;;17.98;;
41572;SDS011;27286;47.870;19.006;2022-11-11T18:31:12;34.45;;;17.27;;
41572;SDS011;27286;47.870;19.006;2022-11-11T18:33:39;28.05;;;18.23;;
41572;SDS011;27286;47.870;19.006;2022-11-11T18:36:12;21.98;;;15.40;;
41572;SDS011;27286;47.870;19.006;2022-11-11T18:38:39;29.88;;;19.98;;
41572;SDS011;27286;47.870;19.006;2022-11-11T18:41:15;24.33;;;16.10;;
41572;SDS011;27286;47.870;19.006;2022-11-11T18:43:43;21.85;;;13.60;;
41572;SDS011;27286;47.870;19.006;2022-11-11T18:46:11;23.02;;;16.02;;
41572;SDS011;27286;47.870;19.006;2022-11-11T18:48:38;23.45;;;14.65;;
41572;SDS011;27286;47.870;19.006;2022-11-11T18:51:05;20.27;;;15.45;;
41572;SDS011;27286;47.870;19.006;2022-11-11T18:53:32;21.67;;;14.07;;
41572;SDS011;27286;47.870;19.006;2022-11-11T18:56:03;21.25;;;14.50;;
41572;SDS011;27286;47.870;19.006;2022-11-11T18:58:39;28.17;;;16.60;;
41572;SDS011;27286;47.870;19.006;2022-11-11T19:01:09;27.27;;;16.40;;
41572;SDS011;27286;47.870;19.006;2022-11-11T19:03:37;32.17;;;18.38;;
41572;SDS011;27286;47.870;19.006;2022-11-11T19:06:08;26.08;;;16.77;;
41572;SDS011;27286;47.870;19.006;2022-11-11T19:08:35;28.02;;;17.73;;